KCVN/CVN METAR and TAF weather

Enter ICAO airport designator
Station Type Date Time Source
KCVN METAR 2020/01/21 20:56 UTC NOAA

KCVN 212056Z AUTO 18013KT 10SM SCT041 SCT050 07/M04 A3010 RMK AO2 SLP200 T00671044 58038


Station Type Date Time Source
KCVN Decoded METAR 2020/01/21 20:56 UTC NOAA

Clovis, Clovis Municipal Airport, NM, United States (KCVN) 34-26N 103-05W
Jan 21, 2020 - 03:56 PM EST / 2020.01.21 2056 UTC
Wind: from the S (180 degrees) at 15 MPH (13 KT):0
Visibility: 10 mile(s):0
Sky conditions: partly cloudy
Temperature: 44.1 F (6.7 C)
Dew Point: 24.1 F (-4.4 C)
Relative Humidity: 44%
Pressure (altimeter): 30.1 in. Hg (1019 hPa)
Pressure tendency: 0.11 inches (3.8 hPa) lower than three hours ago
ob: KCVN 212056Z AUTO 18013KT 10SM SCT041 SCT050 07/M04 A3010 RMK AO2 SLP200 T00671044 58038
cycle: 21

Station Type Date Time Source
KCVN TAF UTC NOAA

Error!

Example: see airport list